Terminal Aerodrome Forecast
Issued by NWS

Home | Current Version | Previous Version | Text Only | Print | Product List | Glossary On
Versions: 1 2 3 4 5 6 7 8 9 10 11 12 13
000
FTUS44 KLIX 280500
TAFMCB
TAF
KMCB 280540Z 2806/0106 03005KT P6SM SKC
      TEMPO 2810/2813 4SM BR
     FM281700 09006KT P6SM SCT250
     FM010100 11005KT P6SM SCT250=

USA.gov is the U.S. government's official web portal to all federal, state and local government web resources and services.